sensor_id;sensor_type;location;lat;lon;timestamp;P1;durP1;ratioP1;P2;durP2;ratioP2
28078;SDS011;15388;42.238;24.684;2023-05-07T00:00:20;11.80;;;7.13;;
28078;SDS011;15388;42.238;24.684;2023-05-07T00:02:46;13.32;;;8.13;;
28078;SDS011;15388;42.238;24.684;2023-05-07T00:05:12;9.80;;;6.90;;
28078;SDS011;15388;42.238;24.684;2023-05-07T00:07:37;11.82;;;7.47;;
28078;SDS011;15388;42.238;24.684;2023-05-07T00:10:03;9.55;;;6.82;;
28078;SDS011;15388;42.238;24.684;2023-05-07T00:12:31;15.00;;;7.97;;
28078;SDS011;15388;42.238;24.684;2023-05-07T00:14:58;10.85;;;7.43;;
28078;SDS011;15388;42.238;24.684;2023-05-07T00:17:24;8.85;;;6.20;;
28078;SDS011;15388;42.238;24.684;2023-05-07T00:19:50;8.95;;;5.97;;
28078;SDS011;15388;42.238;24.684;2023-05-07T00:22:15;8.82;;;6.45;;
28078;SDS011;15388;42.238;24.684;2023-05-07T00:24:41;10.82;;;6.95;;
28078;SDS011;15388;42.238;24.684;2023-05-07T00:27:06;10.20;;;6.07;;
28078;SDS011;15388;42.238;24.684;2023-05-07T00:29:31;9.93;;;6.32;;
28078;SDS011;15388;42.238;24.684;2023-05-07T00:31:57;10.93;;;7.20;;
28078;SDS011;15388;42.238;24.684;2023-05-07T00:34:22;8.75;;;6.32;;
28078;SDS011;15388;42.238;24.684;2023-05-07T00:36:48;9.95;;;6.82;;
28078;SDS011;15388;42.238;24.684;2023-05-07T00:39:13;12.30;;;6.57;;
28078;SDS011;15388;42.238;24.684;2023-05-07T00:41:39;9.75;;;6.88;;
28078;SDS011;15388;42.238;24.684;2023-05-07T00:44:04;10.10;;;6.72;;
28078;SDS011;15388;42.238;24.684;2023-05-07T00:46:30;10.15;;;6.47;;
28078;SDS011;15388;42.238;24.684;2023-05-07T00:48:57;10.88;;;5.95;;
28078;SDS011;15388;42.238;24.684;2023-05-07T00:51:23;13.23;;;7.28;;
28078;SDS011;15388;42.238;24.684;2023-05-07T00:53:52;10.13;;;6.63;;
28078;SDS011;15388;42.238;24.684;2023-05-07T00:56:18;12.15;;;7.65;;
28078;SDS011;15388;42.238;24.684;2023-05-07T00:58:46;10.25;;;8.00;;
28078;SDS011;15388;42.238;24.684;2023-05-07T01:01:12;13.38;;;8.02;;
28078;SDS011;15388;42.238;24.684;2023-05-07T01:03:37;13.57;;;9.43;;
28078;SDS011;15388;42.238;24.684;2023-05-07T01:06:03;16.48;;;11.10;;
28078;SDS011;15388;42.238;24.684;2023-05-07T01:08:29;19.15;;;12.30;;
28078;SDS011;15388;42.238;24.684;2023-05-07T01:10:57;16.30;;;11.93;;
28078;SDS011;15388;42.238;24.684;2023-05-07T01:13:24;18.10;;;12.50;;
28078;SDS011;15388;42.238;24.684;2023-05-07T01:15:50;16.02;;;12.32;;
28078;SDS011;15388;42.238;24.684;2023-05-07T01:18:15;17.98;;;12.35;;
28078;SDS011;15388;42.238;24.684;2023-05-07T01:20:41;14.75;;;12.35;;
28078;SDS011;15388;42.238;24.684;2023-05-07T01:23:07;20.73;;;13.10;;
28078;SDS011;15388;42.238;24.684;2023-05-07T01:25:34;17.90;;;12.45;;
28078;SDS011;15388;42.238;24.684;2023-05-07T01:28:00;23.35;;;12.98;;
28078;SDS011;15388;42.238;24.684;2023-05-07T01:30:26;14.90;;;12.27;;
28078;SDS011;15388;42.238;24.684;2023-05-07T01:33:03;22.07;;;12.17;;
28078;SDS011;15388;42.238;24.684;2023-05-07T01:35:37;23.65;;;13.05;;
28078;SDS011;15388;42.238;24.684;2023-05-07T01:38:05;16.58;;;13.23;;
28078;SDS011;15388;42.238;24.684;2023-05-07T01:40:33;17.52;;;12.55;;
28078;SDS011;15388;42.238;24.684;2023-05-07T01:42:59;20.20;;;13.75;;
28078;SDS011;15388;42.238;24.684;2023-05-07T01:45:25;16.02;;;11.90;;
28078;SDS011;15388;42.238;24.684;2023-05-07T01:47:50;16.20;;;11.90;;
28078;SDS011;15388;42.238;24.684;2023-05-07T01:50:18;16.67;;;10.93;;
28078;SDS011;15388;42.238;24.684;2023-05-07T01:52:45;23.63;;;11.68;;
28078;SDS011;15388;42.238;24.684;2023-05-07T01:55:12;20.00;;;12.52;;
28078;SDS011;15388;42.238;24.684;2023-05-07T01:57:38;14.98;;;12.48;;
28078;SDS011;15388;42.238;24.684;2023-05-07T02:00:03;22.92;;;11.90;;
28078;SDS011;15388;42.238;24.684;2023-05-07T02:02:30;18.52;;;12.82;;
28078;SDS011;15388;42.238;24.684;2023-05-07T02:04:56;18.35;;;11.57;;
28078;SDS011;15388;42.238;24.684;2023-05-07T02:07:21;19.13;;;12.23;;
28078;SDS011;15388;42.238;24.684;2023-05-07T02:09:47;17.80;;;11.65;;
28078;SDS011;15388;42.238;24.684;2023-05-07T02:12:12;19.48;;;11.77;;
28078;SDS011;15388;42.238;24.684;2023-05-07T02:14:38;17.88;;;13.18;;
28078;SDS011;15388;42.238;24.684;2023-05-07T02:17:03;17.35;;;12.43;;
28078;SDS011;15388;42.238;24.684;2023-05-07T02:19:28;20.63;;;12.35;;
28078;SDS011;15388;42.238;24.684;2023-05-07T02:21:55;17.88;;;13.27;;
28078;SDS011;15388;42.238;24.684;2023-05-07T02:24:21;15.20;;;12.32;;
28078;SDS011;15388;42.238;24.684;2023-05-07T02:26:46;19.58;;;13.93;;
28078;SDS011;15388;42.238;24.684;2023-05-07T02:29:12;20.20;;;13.10;;
28078;SDS011;15388;42.238;24.684;2023-05-07T02:31:37;16.73;;;12.93;;
28078;SDS011;15388;42.238;24.684;2023-05-07T02:34:03;14.63;;;11.57;;
28078;SDS011;15388;42.238;24.684;2023-05-07T02:36:29;18.15;;;12.73;;
28078;SDS011;15388;42.238;24.684;2023-05-07T02:38:54;18.52;;;13.20;;
28078;SDS011;15388;42.238;24.684;2023-05-07T02:41:20;25.95;;;14.90;;
28078;SDS011;15388;42.238;24.684;2023-05-07T02:43:45;16.08;;;12.10;;
28078;SDS011;15388;42.238;24.684;2023-05-07T02:46:11;15.52;;;12.15;;
28078;SDS011;15388;42.238;24.684;2023-05-07T02:48:38;15.77;;;11.90;;
28078;SDS011;15388;42.238;24.684;2023-05-07T02:51:03;22.83;;;14.35;;
28078;SDS011;15388;42.238;24.684;2023-05-07T02:53:30;17.15;;;12.20;;
28078;SDS011;15388;42.238;24.684;2023-05-07T02:55:56;15.70;;;12.23;;
28078;SDS011;15388;42.238;24.684;2023-05-07T02:58:23;18.77;;;12.43;;
28078;SDS011;15388;42.238;24.684;2023-05-07T03:00:49;16.98;;;12.32;;
28078;SDS011;15388;42.238;24.684;2023-05-07T03:03:14;17.30;;;13.45;;
28078;SDS011;15388;42.238;24.684;2023-05-07T03:05:40;20.88;;;14.45;;
28078;SDS011;15388;42.238;24.684;2023-05-07T03:08:06;21.33;;;12.88;;
28078;SDS011;15388;42.238;24.684;2023-05-07T03:10:32;21.70;;;12.90;;
28078;SDS011;15388;42.238;24.684;2023-05-07T03:12:57;22.45;;;13.70;;
28078;SDS011;15388;42.238;24.684;2023-05-07T03:15:23;15.20;;;11.95;;
28078;SDS011;15388;42.238;24.684;2023-05-07T03:17:48;17.60;;;13.20;;
28078;SDS011;15388;42.238;24.684;2023-05-07T03:20:15;14.50;;;12.40;;
28078;SDS011;15388;42.238;24.684;2023-05-07T03:22:41;21.45;;;14.15;;
28078;SDS011;15388;42.238;24.684;2023-05-07T03:25:06;17.50;;;13.57;;
28078;SDS011;15388;42.238;24.684;2023-05-07T03:27:33;16.83;;;12.60;;
28078;SDS011;15388;42.238;24.684;2023-05-07T03:29:59;24.83;;;15.32;;
28078;SDS011;15388;42.238;24.684;2023-05-07T03:32:25;19.63;;;14.07;;
28078;SDS011;15388;42.238;24.684;2023-05-07T03:34:50;23.08;;;14.13;;
28078;SDS011;15388;42.238;24.684;2023-05-07T03:37:16;23.95;;;14.32;;
28078;SDS011;15388;42.238;24.684;2023-05-07T03:39:41;17.70;;;14.15;;
28078;SDS011;15388;42.238;24.684;2023-05-07T03:42:07;19.92;;;14.32;;
28078;SDS011;15388;42.238;24.684;2023-05-07T03:44:32;17.48;;;13.15;;
28078;SDS011;15388;42.238;24.684;2023-05-07T03:46:58;20.50;;;12.02;;
28078;SDS011;15388;42.238;24.684;2023-05-07T03:49:23;22.30;;;12.75;;
28078;SDS011;15388;42.238;24.684;2023-05-07T03:51:49;16.88;;;11.90;;
28078;SDS011;15388;42.238;24.684;2023-05-07T03:54:14;15.52;;;11.90;;
28078;SDS011;15388;42.238;24.684;2023-05-07T03:56:40;18.20;;;11.45;;
28078;SDS011;15388;42.238;24.684;2023-05-07T03:59:05;20.83;;;13.15;;
28078;SDS011;15388;42.238;24.684;2023-05-07T04:01:31;16.70;;;13.10;;
28078;SDS011;15388;42.238;24.684;2023-05-07T04:03:56;21.30;;;12.85;;
28078;SDS011;15388;42.238;24.684;2023-05-07T04:06:22;15.52;;;12.07;;
28078;SDS011;15388;42.238;24.684;2023-05-07T04:08:48;18.77;;;13.43;;
28078;SDS011;15388;42.238;24.684;2023-05-07T04:11:13;16.58;;;11.48;;
28078;SDS011;15388;42.238;24.684;2023-05-07T04:13:39;17.40;;;11.80;;
28078;SDS011;15388;42.238;24.684;2023-05-07T04:16:05;19.17;;;12.00;;
28078;SDS011;15388;42.238;24.684;2023-05-07T04:18:32;22.63;;;12.20;;
28078;SDS011;15388;42.238;24.684;2023-05-07T04:20:58;16.63;;;12.35;;
28078;SDS011;15388;42.238;24.684;2023-05-07T04:23:25;13.85;;;10.95;;
28078;SDS011;15388;42.238;24.684;2023-05-07T04:25:50;16.75;;;11.93;;
28078;SDS011;15388;42.238;24.684;2023-05-07T04:28:16;12.93;;;11.32;;
28078;SDS011;15388;42.238;24.684;2023-05-07T04:30:41;12.82;;;10.77;;
28078;SDS011;15388;42.238;24.684;2023-05-07T04:33:07;16.15;;;11.73;;
28078;SDS011;15388;42.238;24.684;2023-05-07T04:35:32;17.63;;;11.10;;
28078;SDS011;15388;42.238;24.684;2023-05-07T04:37:58;15.85;;;11.80;;
28078;SDS011;15388;42.238;24.684;2023-05-07T04:40:23;15.50;;;11.02;;
28078;SDS011;15388;42.238;24.684;2023-05-07T04:42:49;14.30;;;11.05;;
28078;SDS011;15388;42.238;24.684;2023-05-07T04:45:15;17.73;;;12.05;;
28078;SDS011;15388;42.238;24.684;2023-05-07T04:47:40;13.98;;;11.55;;
28078;SDS011;15388;42.238;24.684;2023-05-07T04:50:06;17.60;;;11.35;;
28078;SDS011;15388;42.238;24.684;2023-05-07T04:52:33;18.35;;;11.27;;
28078;SDS011;15388;42.238;24.684;2023-05-07T04:54:59;15.50;;;11.40;;
28078;SDS011;15388;42.238;24.684;2023-05-07T04:57:25;16.05;;;10.63;;
28078;SDS011;15388;42.238;24.684;2023-05-07T04:59:52;15.73;;;11.87;;
28078;SDS011;15388;42.238;24.684;2023-05-07T05:02:18;13.65;;;9.70;;
28078;SDS011;15388;42.238;24.684;2023-05-07T05:04:43;19.02;;;9.25;;
28078;SDS011;15388;42.238;24.684;2023-05-07T05:07:09;18.88;;;9.60;;
28078;SDS011;15388;42.238;24.684;2023-05-07T05:09:34;14.52;;;9.40;;
28078;SDS011;15388;42.238;24.684;2023-05-07T05:12:00;12.73;;;8.52;;
28078;SDS011;15388;42.238;24.684;2023-05-07T05:14:25;17.63;;;9.77;;
28078;SDS011;15388;42.238;24.684;2023-05-07T05:16:51;13.13;;;9.30;;
28078;SDS011;15388;42.238;24.684;2023-05-07T05:19:16;15.55;;;10.57;;
28078;SDS011;15388;42.238;24.684;2023-05-07T05:21:42;16.88;;;10.95;;
28078;SDS011;15388;42.238;24.684;2023-05-07T05:24:07;14.82;;;10.32;;
28078;SDS011;15388;42.238;24.684;2023-05-07T05:26:33;14.68;;;10.15;;
28078;SDS011;15388;42.238;24.684;2023-05-07T05:28:59;16.98;;;12.10;;
28078;SDS011;15388;42.238;24.684;2023-05-07T05:31:24;26.23;;;11.95;;
28078;SDS011;15388;42.238;24.684;2023-05-07T05:33:50;17.98;;;10.38;;
28078;SDS011;15388;42.238;24.684;2023-05-07T05:36:16;16.83;;;10.20;;
28078;SDS011;15388;42.238;24.684;2023-05-07T05:38:41;14.30;;;9.73;;
28078;SDS011;15388;42.238;24.684;2023-05-07T05:41:07;10.63;;;8.85;;
28078;SDS011;15388;42.238;24.684;2023-05-07T05:43:32;13.50;;;10.07;;
28078;SDS011;15388;42.238;24.684;2023-05-07T05:45:59;16.75;;;9.45;;
28078;SDS011;15388;42.238;24.684;2023-05-07T05:48:25;12.50;;;9.70;;
28078;SDS011;15388;42.238;24.684;2023-05-07T05:50:51;17.08;;;10.57;;
28078;SDS011;15388;42.238;24.684;2023-05-07T05:53:16;14.77;;;9.32;;
28078;SDS011;15388;42.238;24.684;2023-05-07T05:55:42;13.30;;;9.10;;
28078;SDS011;15388;42.238;24.684;2023-05-07T05:58:08;15.77;;;9.83;;
28078;SDS011;15388;42.238;24.684;2023-05-07T06:00:34;11.35;;;8.88;;
28078;SDS011;15388;42.238;24.684;2023-05-07T06:03:00;14.65;;;10.15;;
28078;SDS011;15388;42.238;24.684;2023-05-07T06:05:25;11.23;;;9.10;;
28078;SDS011;15388;42.238;24.684;2023-05-07T06:07:50;11.57;;;9.20;;
28078;SDS011;15388;42.238;24.684;2023-05-07T06:10:16;12.63;;;9.52;;
28078;SDS011;15388;42.238;24.684;2023-05-07T06:12:41;13.10;;;7.80;;
28078;SDS011;15388;42.238;24.684;2023-05-07T06:15:07;9.60;;;7.75;;
28078;SDS011;15388;42.238;24.684;2023-05-07T06:17:33;10.85;;;8.57;;
28078;SDS011;15388;42.238;24.684;2023-05-07T06:19:59;9.80;;;8.15;;
28078;SDS011;15388;42.238;24.684;2023-05-07T06:22:25;9.93;;;7.82;;
28078;SDS011;15388;42.238;24.684;2023-05-07T06:24:51;11.15;;;8.77;;
28078;SDS011;15388;42.238;24.684;2023-05-07T06:27:16;13.13;;;9.32;;
28078;SDS011;15388;42.238;24.684;2023-05-07T06:29:42;9.27;;;7.47;;
28078;SDS011;15388;42.238;24.684;2023-05-07T06:32:11;9.57;;;7.68;;
28078;SDS011;15388;42.238;24.684;2023-05-07T06:34:38;13.27;;;7.65;;
28078;SDS011;15388;42.238;24.684;2023-05-07T06:37:05;11.65;;;7.85;;
28078;SDS011;15388;42.238;24.684;2023-05-07T06:39:31;13.83;;;7.87;;
28078;SDS011;15388;42.238;24.684;2023-05-07T06:41:57;9.88;;;7.30;;
28078;SDS011;15388;42.238;24.684;2023-05-07T06:44:23;8.63;;;6.95;;
28078;SDS011;15388;42.238;24.684;2023-05-07T06:46:48;10.25;;;6.75;;
28078;SDS011;15388;42.238;24.684;2023-05-07T06:49:14;12.73;;;7.70;;
28078;SDS011;15388;42.238;24.684;2023-05-07T06:51:40;8.55;;;6.82;;
28078;SDS011;15388;42.238;24.684;2023-05-07T06:54:05;10.00;;;7.45;;
28078;SDS011;15388;42.238;24.684;2023-05-07T06:56:31;15.63;;;7.85;;
28078;SDS011;15388;42.238;24.684;2023-05-07T06:58:59;11.32;;;7.30;;
28078;SDS011;15388;42.238;24.684;2023-05-07T07:01:25;14.02;;;6.75;;
28078;SDS011;15388;42.238;24.684;2023-05-07T07:03:50;9.10;;;7.57;;
28078;SDS011;15388;42.238;24.684;2023-05-07T07:06:17;10.65;;;7.55;;
28078;SDS011;15388;42.238;24.684;2023-05-07T07:08:43;11.82;;;6.72;;
28078;SDS011;15388;42.238;24.684;2023-05-07T07:11:09;14.77;;;6.90;;
28078;SDS011;15388;42.238;24.684;2023-05-07T07:13:35;7.65;;;5.53;;
28078;SDS011;15388;42.238;24.684;2023-05-07T07:16:00;10.57;;;7.22;;
28078;SDS011;15388;42.238;24.684;2023-05-07T07:18:26;11.32;;;7.00;;
28078;SDS011;15388;42.238;24.684;2023-05-07T07:20:52;10.07;;;7.03;;
28078;SDS011;15388;42.238;24.684;2023-05-07T07:23:17;8.27;;;6.45;;
28078;SDS011;15388;42.238;24.684;2023-05-07T07:25:44;9.07;;;6.53;;
28078;SDS011;15388;42.238;24.684;2023-05-07T07:28:10;7.45;;;5.57;;
28078;SDS011;15388;42.238;24.684;2023-05-07T07:30:37;6.32;;;5.70;;
28078;SDS011;15388;42.238;24.684;2023-05-07T07:33:04;7.97;;;5.10;;
28078;SDS011;15388;42.238;24.684;2023-05-07T07:35:30;7.97;;;6.00;;
28078;SDS011;15388;42.238;24.684;2023-05-07T07:37:57;8.55;;;6.15;;
28078;SDS011;15388;42.238;24.684;2023-05-07T07:40:23;8.40;;;6.10;;
28078;SDS011;15388;42.238;24.684;2023-05-07T07:42:49;7.25;;;6.45;;
28078;SDS011;15388;42.238;24.684;2023-05-07T07:45:15;7.35;;;6.63;;
28078;SDS011;15388;42.238;24.684;2023-05-07T07:47:41;14.10;;;8.10;;
28078;SDS011;15388;42.238;24.684;2023-05-07T07:50:07;11.30;;;7.38;;
28078;SDS011;15388;42.238;24.684;2023-05-07T07:52:34;9.43;;;6.25;;
28078;SDS011;15388;42.238;24.684;2023-05-07T07:54:59;16.13;;;6.68;;
28078;SDS011;15388;42.238;24.684;2023-05-07T07:57:25;8.52;;;6.05;;
28078;SDS011;15388;42.238;24.684;2023-05-07T07:59:51;8.45;;;6.65;;
28078;SDS011;15388;42.238;24.684;2023-05-07T08:02:16;9.02;;;6.72;;
28078;SDS011;15388;42.238;24.684;2023-05-07T08:04:42;29.70;;;14.65;;
28078;SDS011;15388;42.238;24.684;2023-05-07T08:07:08;13.07;;;7.95;;
28078;SDS011;15388;42.238;24.684;2023-05-07T08:09:36;8.60;;;6.82;;
28078;SDS011;15388;42.238;24.684;2023-05-07T08:12:03;11.32;;;6.38;;
28078;SDS011;15388;42.238;24.684;2023-05-07T08:14:29;11.43;;;4.82;;
28078;SDS011;15388;42.238;24.684;2023-05-07T08:16:55;12.77;;;5.75;;
28078;SDS011;15388;42.238;24.684;2023-05-07T08:19:20;10.27;;;5.45;;
28078;SDS011;15388;42.238;24.684;2023-05-07T08:21:46;9.85;;;4.97;;
28078;SDS011;15388;42.238;24.684;2023-05-07T08:24:15;7.53;;;5.22;;
28078;SDS011;15388;42.238;24.684;2023-05-07T08:26:41;6.07;;;5.03;;
28078;SDS011;15388;42.238;24.684;2023-05-07T08:29:07;9.38;;;5.90;;
28078;SDS011;15388;42.238;24.684;2023-05-07T08:31:32;13.38;;;5.85;;
28078;SDS011;15388;42.238;24.684;2023-05-07T08:33:58;9.23;;;5.80;;
28078;SDS011;15388;42.238;24.684;2023-05-07T08:36:24;13.30;;;7.72;;
28078;SDS011;15388;42.238;24.684;2023-05-07T08:38:50;10.82;;;4.53;;
28078;SDS011;15388;42.238;24.684;2023-05-07T08:41:16;41.65;;;19.55;;
28078;SDS011;15388;42.238;24.684;2023-05-07T08:43:41;10.25;;;5.43;;
28078;SDS011;15388;42.238;24.684;2023-05-07T08:46:10;12.85;;;5.88;;
28078;SDS011;15388;42.238;24.684;2023-05-07T08:48:41;17.90;;;5.80;;
28078;SDS011;15388;42.238;24.684;2023-05-07T08:51:08;6.30;;;4.63;;
28078;SDS011;15388;42.238;24.684;2023-05-07T08:53:38;9.45;;;4.50;;
28078;SDS011;15388;42.238;24.684;2023-05-07T08:56:06;14.45;;;6.68;;
28078;SDS011;15388;42.238;24.684;2023-05-07T08:58:33;7.72;;;4.80;;
28078;SDS011;15388;42.238;24.684;2023-05-07T09:01:01;5.97;;;4.35;;
28078;SDS011;15388;42.238;24.684;2023-05-07T09:03:32;9.25;;;4.95;;
28078;SDS011;15388;42.238;24.684;2023-05-07T09:05:57;8.45;;;4.88;;
28078;SDS011;15388;42.238;24.684;2023-05-07T09:08:26;6.03;;;4.43;;
28078;SDS011;15388;42.238;24.684;2023-05-07T09:10:52;5.68;;;4.80;;
28078;SDS011;15388;42.238;24.684;2023-05-07T09:13:17;6.63;;;4.25;;
28078;SDS011;15388;42.238;24.684;2023-05-07T09:15:43;10.30;;;7.25;;
28078;SDS011;15388;42.238;24.684;2023-05-07T09:18:09;6.93;;;6.32;;
28078;SDS011;15388;42.238;24.684;2023-05-07T09:20:36;7.13;;;6.45;;
28078;SDS011;15388;42.238;24.684;2023-05-07T09:23:02;8.00;;;5.80;;
28078;SDS011;15388;42.238;24.684;2023-05-07T09:25:31;10.98;;;4.82;;
28078;SDS011;15388;42.238;24.684;2023-05-07T09:27:57;7.40;;;4.90;;
28078;SDS011;15388;42.238;24.684;2023-05-07T09:30:26;8.02;;;5.97;;
28078;SDS011;15388;42.238;24.684;2023-05-07T09:32:59;7.43;;;5.15;;
28078;SDS011;15388;42.238;24.684;2023-05-07T09:35:26;10.30;;;4.60;;
28078;SDS011;15388;42.238;24.684;2023-05-07T09:37:55;6.72;;;4.47;;
28078;SDS011;15388;42.238;24.684;2023-05-07T09:40:22;8.73;;;5.18;;
28078;SDS011;15388;42.238;24.684;2023-05-07T09:42:51;9.77;;;4.18;;
28078;SDS011;15388;42.238;24.684;2023-05-07T09:45:29;9.63;;;4.33;;
28078;SDS011;15388;42.238;24.684;2023-05-07T09:47:56;8.70;;;3.53;;
28078;SDS011;15388;42.238;24.684;2023-05-07T09:50:29;5.40;;;3.75;;
28078;SDS011;15388;42.238;24.684;2023-05-07T09:52:57;6.03;;;3.95;;
28078;SDS011;15388;42.238;24.684;2023-05-07T09:55:24;10.85;;;3.88;;
28078;SDS011;15388;42.238;24.684;2023-05-07T09:57:51;6.63;;;2.97;;
28078;SDS011;15388;42.238;24.684;2023-05-07T10:00:20;5.15;;;3.10;;
28078;SDS011;15388;42.238;24.684;2023-05-07T10:02:47;7.53;;;3.75;;
28078;SDS011;15388;42.238;24.684;2023-05-07T10:05:14;5.20;;;3.45;;
28078;SDS011;15388;42.238;24.684;2023-05-07T10:07:40;4.47;;;3.35;;
28078;SDS011;15388;42.238;24.684;2023-05-07T10:10:06;5.47;;;3.17;;
28078;SDS011;15388;42.238;24.684;2023-05-07T10:12:34;5.07;;;3.13;;
28078;SDS011;15388;42.238;24.684;2023-05-07T10:15:05;4.03;;;2.92;;
28078;SDS011;15388;42.238;24.684;2023-05-07T10:17:33;12.35;;;3.53;;
28078;SDS011;15388;42.238;24.684;2023-05-07T10:20:01;7.47;;;3.67;;
28078;SDS011;15388;42.238;24.684;2023-05-07T10:22:26;8.60;;;3.72;;
28078;SDS011;15388;42.238;24.684;2023-05-07T10:24:54;5.78;;;3.35;;
28078;SDS011;15388;42.238;24.684;2023-05-07T10:27:22;7.28;;;4.03;;
28078;SDS011;15388;42.238;24.684;2023-05-07T10:32:48;7.07;;;4.20;;
28078;SDS011;15388;42.238;24.684;2023-05-07T10:35:20;7.13;;;4.70;;
28078;SDS011;15388;42.238;24.684;2023-05-07T10:37:49;9.35;;;5.25;;
28078;SDS011;15388;42.238;24.684;2023-05-07T10:40:17;12.63;;;5.18;;
28078;SDS011;15388;42.238;24.684;2023-05-07T10:45:26;6.10;;;4.45;;
28078;SDS011;15388;42.238;24.684;2023-05-07T10:50:39;6.88;;;4.25;;
28078;SDS011;15388;42.238;24.684;2023-05-07T10:55:44;8.90;;;5.47;;
28078;SDS011;15388;42.238;24.684;2023-05-07T11:00:46;6.35;;;4.55;;
28078;SDS011;15388;42.238;24.684;2023-05-07T11:03:11;5.25;;;4.75;;
28078;SDS011;15388;42.238;24.684;2023-05-07T11:05:37;7.22;;;4.47;;
28078;SDS011;15388;42.238;24.684;2023-05-07T11:08:03;4.78;;;4.20;;
28078;SDS011;15388;42.238;24.684;2023-05-07T11:13:13;5.15;;;4.13;;
28078;SDS011;15388;42.238;24.684;2023-05-07T11:15:46;7.15;;;4.47;;
28078;SDS011;15388;42.238;24.684;2023-05-07T11:18:13;5.30;;;3.72;;
28078;SDS011;15388;42.238;24.684;2023-05-07T11:20:53;5.60;;;3.75;;
28078;SDS011;15388;42.238;24.684;2023-05-07T11:26:10;8.60;;;3.58;;
28078;SDS011;15388;42.238;24.684;2023-05-07T11:28:37;4.25;;;3.00;;
28078;SDS011;15388;42.238;24.684;2023-05-07T11:31:03;5.72;;;3.40;;
28078;SDS011;15388;42.238;24.684;2023-05-07T11:33:32;5.67;;;3.13;;
28078;SDS011;15388;42.238;24.684;2023-05-07T11:35:59;5.30;;;3.80;;
28078;SDS011;15388;42.238;24.684;2023-05-07T11:38:25;3.88;;;3.20;;
28078;SDS011;15388;42.238;24.684;2023-05-07T11:40:58;7.18;;;3.55;;
28078;SDS011;15388;42.238;24.684;2023-05-07T11:43:29;4.30;;;3.47;;
28078;SDS011;15388;42.238;24.684;2023-05-07T11:45:58;3.80;;;3.15;;
28078;SDS011;15388;42.238;24.684;2023-05-07T11:48:31;5.40;;;4.00;;
28078;SDS011;15388;42.238;24.684;2023-05-07T11:51:01;7.97;;;3.35;;
28078;SDS011;15388;42.238;24.684;2023-05-07T11:53:36;6.07;;;3.33;;
28078;SDS011;15388;42.238;24.684;2023-05-07T11:56:06;5.07;;;3.40;;
28078;SDS011;15388;42.238;24.684;2023-05-07T11:58:36;9.02;;;3.92;;
28078;SDS011;15388;42.238;24.684;2023-05-07T12:01:02;6.75;;;4.10;;
28078;SDS011;15388;42.238;24.684;2023-05-07T12:03:27;19.77;;;4.45;;
28078;SDS011;15388;42.238;24.684;2023-05-07T12:05:53;6.28;;;3.60;;
28078;SDS011;15388;42.238;24.684;2023-05-07T12:10:48;5.38;;;3.83;;
28078;SDS011;15388;42.238;24.684;2023-05-07T12:15:41;5.88;;;3.72;;
28078;SDS011;15388;42.238;24.684;2023-05-07T12:18:10;5.45;;;3.47;;
28078;SDS011;15388;42.238;24.684;2023-05-07T12:20:36;7.95;;;3.03;;
28078;SDS011;15388;42.238;24.684;2023-05-07T12:23:02;6.77;;;3.40;;
28078;SDS011;15388;42.238;24.684;2023-05-07T12:25:35;3.63;;;3.27;;
28078;SDS011;15388;42.238;24.684;2023-05-07T12:28:04;2.95;;;2.67;;
28078;SDS011;15388;42.238;24.684;2023-05-07T12:30:36;4.60;;;4.20;;
28078;SDS011;15388;42.238;24.684;2023-05-07T12:33:03;4.90;;;2.95;;
28078;SDS011;15388;42.238;24.684;2023-05-07T12:35:32;3.40;;;3.10;;
28078;SDS011;15388;42.238;24.684;2023-05-07T12:38:01;22.08;;;4.93;;
28078;SDS011;15388;42.238;24.684;2023-05-07T12:40:39;6.53;;;3.63;;
28078;SDS011;15388;42.238;24.684;2023-05-07T12:43:06;5.93;;;3.17;;
28078;SDS011;15388;42.238;24.684;2023-05-07T12:45:40;3.67;;;3.17;;
28078;SDS011;15388;42.238;24.684;2023-05-07T12:48:06;6.30;;;3.45;;
28078;SDS011;15388;42.238;24.684;2023-05-07T12:50:34;5.68;;;3.50;;
28078;SDS011;15388;42.238;24.684;2023-05-07T12:52:59;6.03;;;3.30;;
28078;SDS011;15388;42.238;24.684;2023-05-07T12:55:25;3.40;;;3.10;;
28078;SDS011;15388;42.238;24.684;2023-05-07T12:57:51;5.50;;;3.33;;
28078;SDS011;15388;42.238;24.684;2023-05-07T13:02:58;7.60;;;3.83;;
28078;SDS011;15388;42.238;24.684;2023-05-07T13:05:23;6.72;;;3.33;;
28078;SDS011;15388;42.238;24.684;2023-05-07T13:07:55;3.20;;;2.90;;
28078;SDS011;15388;42.238;24.684;2023-05-07T13:10:21;5.50;;;3.65;;
28078;SDS011;15388;42.238;24.684;2023-05-07T13:15:13;5.38;;;2.65;;
28078;SDS011;15388;42.238;24.684;2023-05-07T13:17:39;19.15;;;4.10;;
28078;SDS011;15388;42.238;24.684;2023-05-07T13:20:05;5.15;;;2.92;;
28078;SDS011;15388;42.238;24.684;2023-05-07T13:22:31;6.70;;;3.17;;
28078;SDS011;15388;42.238;24.684;2023-05-07T13:24:57;8.43;;;3.10;;
28078;SDS011;15388;42.238;24.684;2023-05-07T13:27:22;11.83;;;3.30;;
28078;SDS011;15388;42.238;24.684;2023-05-07T13:29:48;7.15;;;3.15;;
28078;SDS011;15388;42.238;24.684;2023-05-07T13:32:13;5.57;;;2.90;;
28078;SDS011;15388;42.238;24.684;2023-05-07T13:34:38;3.77;;;2.73;;
28078;SDS011;15388;42.238;24.684;2023-05-07T13:37:04;4.57;;;2.87;;
28078;SDS011;15388;42.238;24.684;2023-05-07T13:39:29;15.40;;;3.40;;
28078;SDS011;15388;42.238;24.684;2023-05-07T13:41:55;4.95;;;2.53;;
28078;SDS011;15388;42.238;24.684;2023-05-07T13:44:20;2.80;;;2.57;;
28078;SDS011;15388;42.238;24.684;2023-05-07T13:46:46;7.63;;;3.00;;
28078;SDS011;15388;42.238;24.684;2023-05-07T13:49:11;13.10;;;5.27;;
28078;SDS011;15388;42.238;24.684;2023-05-07T13:51:37;5.97;;;4.37;;
28078;SDS011;15388;42.238;24.684;2023-05-07T13:54:03;5.10;;;4.00;;
28078;SDS011;15388;42.238;24.684;2023-05-07T13:56:29;5.77;;;2.53;;
28078;SDS011;15388;42.238;24.684;2023-05-07T13:58:56;5.30;;;3.35;;
28078;SDS011;15388;42.238;24.684;2023-05-07T14:01:22;5.73;;;3.30;;
28078;SDS011;15388;42.238;24.684;2023-05-07T14:03:47;4.43;;;3.37;;
28078;SDS011;15388;42.238;24.684;2023-05-07T14:06:13;6.60;;;3.30;;
28078;SDS011;15388;42.238;24.684;2023-05-07T14:08:38;3.47;;;2.90;;
28078;SDS011;15388;42.238;24.684;2023-05-07T14:11:04;8.05;;;3.38;;
28078;SDS011;15388;42.238;24.684;2023-05-07T14:13:29;6.77;;;3.73;;
28078;SDS011;15388;42.238;24.684;2023-05-07T14:15:55;8.98;;;3.58;;
28078;SDS011;15388;42.238;24.684;2023-05-07T14:18:21;3.50;;;2.53;;
28078;SDS011;15388;42.238;24.684;2023-05-07T14:20:48;3.53;;;3.00;;
28078;SDS011;15388;42.238;24.684;2023-05-07T14:23:14;6.20;;;3.13;;
28078;SDS011;15388;42.238;24.684;2023-05-07T14:25:41;3.83;;;3.00;;
28078;SDS011;15388;42.238;24.684;2023-05-07T14:28:08;8.68;;;3.63;;
28078;SDS011;15388;42.238;24.684;2023-05-07T14:30:34;7.68;;;3.40;;
28078;SDS011;15388;42.238;24.684;2023-05-07T14:33:01;6.00;;;2.78;;
28078;SDS011;15388;42.238;24.684;2023-05-07T14:35:26;5.75;;;3.92;;
28078;SDS011;15388;42.238;24.684;2023-05-07T14:37:52;8.30;;;3.70;;
28078;SDS011;15388;42.238;24.684;2023-05-07T14:40:17;7.13;;;3.00;;
28078;SDS011;15388;42.238;24.684;2023-05-07T14:42:42;7.40;;;4.13;;
28078;SDS011;15388;42.238;24.684;2023-05-07T14:45:08;7.22;;;3.13;;
28078;SDS011;15388;42.238;24.684;2023-05-07T14:50:00;5.27;;;3.70;;